Time;durP1;ratioP1;P1;durP2;ratioP2;P2;SDS_P1;SDS_P2;PMS_P1;PMS_P2;Temp;Humidity;BMP_temperature;BMP_pressure;BME280_temperature;BME280_humidity;BME280_pressure;Samples;Min_cycle;Max_cycle;Signal;HPM_P1;HPM_P2
2022/06/06 00:00:05;;;;;;;22.45;7.20;;;14.90;99.90;;;;;;4833329;29;20446;-82
2022/06/06 00:02:31;;;;;;;24.90;7.45;;;14.90;99.90;;;;;;4817800;29;20522;-82
2022/06/06 00:04:57;;;;;;;13.95;6.40;;;14.90;99.90;;;;;;4830516;29;20049;-83
2022/06/06 00:07:25;;;;;;;23.45;6.75;;;14.90;99.90;;;;;;4820803;29;20382;-82
2022/06/06 00:09:51;;;;;;;16.63;6.95;;;14.90;99.90;;;;;;4822996;29;20042;-82
2022/06/06 00:12:17;;;;;;;19.98;5.78;;;14.90;99.90;;;;;;4844891;29;20112;-82
2022/06/06 00:14:44;;;;;;;13.52;6.05;;;14.80;99.90;;;;;;4826388;29;20080;-81
2022/06/06 00:17:09;;;;;;;20.10;5.82;;;14.90;99.90;;;;;;4833808;29;20042;-81
2022/06/06 00:19:35;;;;;;;10.50;4.63;;;14.90;99.90;;;;;;4821703;29;20044;-82
2022/06/06 00:22:01;;;;;;;12.93;5.10;;;14.90;99.90;;;;;;4829728;29;20048;-81
2022/06/06 00:24:27;;;;;;;12.02;5.10;;;14.80;99.90;;;;;;4830595;29;20182;-82
2022/06/06 00:26:52;;;;;;;11.40;4.88;;;14.90;99.90;;;;;;4819254;29;20046;-82
2022/06/06 00:29:20;;;;;;;14.38;5.75;;;14.80;99.90;;;;;;4818787;29;20040;-82
2022/06/06 00:34:49;;;;;;;12.02;5.57;;;14.80;99.90;;;;;;4841469;29;20521;-82
2022/06/06 00:37:19;;;;;;;15.30;6.25;;;14.80;99.90;;;;;;4817590;29;20129;-82
2022/06/06 00:39:45;;;;;;;12.57;5.53;;;14.80;99.90;;;;;;4836643;29;20041;-83
2022/06/06 00:42:21;;;;;;;10.70;5.93;;;14.80;99.90;;;;;;4823211;29;20078;-83
2022/06/06 00:44:47;;;;;;;14.07;6.40;;;14.80;99.90;;;;;;4848192;29;20472;-83
2022/06/06 00:47:28;;;;;;;12.45;6.25;;;14.80;99.90;;;;;;4820699;29;20056;-83
2022/06/06 00:50:05;;;;;;;15.50;6.20;;;14.80;99.90;;;;;;4829738;29;20052;-82
2022/06/06 00:52:35;;;;;;;16.25;6.70;;;14.80;99.90;;;;;;4810284;29;20130;-82
2022/06/06 00:55:06;;;;;;;9.98;6.50;;;14.80;99.90;;;;;;4824790;29;20033;-83
2022/06/06 00:57:35;;;;;;;8.52;5.63;;;14.80;99.90;;;;;;4818397;29;20056;-83
2022/06/06 01:00:06;;;;;;;14.00;6.22;;;14.80;99.90;;;;;;4833200;29;20069;-83
2022/06/06 01:02:32;;;;;;;11.35;6.45;;;14.70;99.90;;;;;;4827603;29;20409;-83
2022/06/06 01:04:57;;;;;;;19.63;7.35;;;14.80;99.90;;;;;;4809542;29;20128;-82
2022/06/06 01:07:23;;;;;;;18.58;7.95;;;14.70;99.90;;;;;;4802682;29;20146;-82
2022/06/06 01:09:49;;;;;;;23.75;9.13;;;14.70;99.90;;;;;;4817050;29;20417;-82
2022/06/06 01:12:19;;;;;;;28.60;11.93;;;14.70;99.90;;;;;;4825328;29;20136;-82
2022/06/06 01:14:59;;;;;;;29.77;12.52;;;14.70;99.90;;;;;;4808505;29;20041;-83
2022/06/06 01:17:54;;;;;;;28.27;11.52;;;14.80;99.90;;;;;;4818428;29;20076;-82
2022/06/06 01:20:32;;;;;;;21.98;11.77;;;14.80;99.90;;;;;;4825500;29;20056;-83
2022/06/06 01:23:47;;;;;;;32.95;12.30;;;14.80;99.90;;;;;;4812724;29;20085;-84
2022/06/06 01:26:51;;;;;;;52.75;14.90;;;14.80;99.90;;;;;;4804378;29;20447;-84
2022/06/06 01:29:34;;;;;;;64.07;17.33;;;14.80;99.90;;;;;;4806615;29;20061;-83
2022/06/06 01:32:12;;;;;;;71.97;18.00;;;14.80;99.90;;;;;;4817166;29;20124;-85
2022/06/06 01:34:42;;;;;;;69.57;18.80;;;14.80;99.90;;;;;;4830909;29;20327;-83
2022/06/06 01:37:37;;;;;;;58.85;20.17;;;14.70;99.90;;;;;;4814635;29;20512;-83
2022/06/06 01:40:10;;;;;;;51.88;18.60;;;14.70;99.90;;;;;;4815178;29;20058;-84
2022/06/06 01:42:58;;;;;;;60.50;19.00;;;14.70;99.90;;;;;;4810068;29;20041;-84
2022/06/06 01:45:40;;;;;;;56.42;18.13;;;14.60;99.90;;;;;;4817991;29;20500;-84
2022/06/06 01:48:16;;;;;;;35.25;18.30;;;14.60;99.90;;;;;;4816901;29;20046;-84
2022/06/06 01:50:43;;;;;;;42.90;19.60;;;14.50;99.90;;;;;;4802376;29;20150;-84
2022/06/06 01:53:18;;;;;;;60.75;18.42;;;14.40;99.90;;;;;;4816699;29;20096;-82
2022/06/06 01:55:46;;;;;;;56.35;18.40;;;14.40;99.90;;;;;;4821115;29;20042;-83
2022/06/06 01:58:17;;;;;;;47.70;17.65;;;14.40;99.90;;;;;;4816518;29;20541;-85
2022/06/06 02:00:43;;;;;;;45.45;19.25;;;14.40;99.90;;;;;;4802215;29;20038;-84
2022/06/06 02:03:08;;;;;;;47.55;17.52;;;14.40;99.90;;;;;;4809605;29;20394;-83
2022/06/06 02:05:35;;;;;;;61.72;17.73;;;14.30;99.90;;;;;;4815243;29;20493;-84
2022/06/06 02:08:00;;;;;;;52.50;17.30;;;14.40;99.90;;;;;;4820258;29;20450;-84
2022/06/06 02:10:26;;;;;;;41.55;17.10;;;14.30;99.90;;;;;;4854286;29;20046;-84
2022/06/06 02:12:52;;;;;;;62.63;15.27;;;14.30;99.90;;;;;;4814602;29;20042;-82
2022/06/06 02:15:22;;;;;;;41.97;15.20;;;14.30;99.90;;;;;;4808394;29;20461;-83
2022/06/06 02:17:48;;;;;;;32.85;14.85;;;14.30;99.90;;;;;;4832293;29;20042;-84
2022/06/06 02:20:16;;;;;;;54.00;15.27;;;14.20;99.90;;;;;;4815751;29;20047;-83
2022/06/06 02:22:43;;;;;;;47.08;15.05;;;14.20;99.90;;;;;;4835363;29;20056;-84
2022/06/06 02:25:09;;;;;;;52.33;13.73;;;14.20;99.90;;;;;;4816496;29;20046;-83
2022/06/06 02:27:36;;;;;;;48.97;15.00;;;14.20;99.90;;;;;;4801030;29;20042;-84
2022/06/06 02:30:05;;;;;;;69.22;14.82;;;14.20;99.90;;;;;;4818787;29;20325;-83
2022/06/06 02:32:31;;;;;;;67.15;15.30;;;14.20;99.90;;;;;;4826094;29;20081;-83
2022/06/06 02:34:57;;;;;;;59.30;16.50;;;14.10;99.90;;;;;;4842528;29;20045;-84
2022/06/06 02:37:23;;;;;;;45.92;16.80;;;14.20;99.90;;;;;;4818074;29;20565;-83
2022/06/06 02:39:49;;;;;;;59.78;17.55;;;14.10;99.90;;;;;;4851109;29;20125;-84
2022/06/06 02:42:14;;;;;;;74.15;18.05;;;14.00;99.90;;;;;;4831639;29;20398;-83
2022/06/06 02:44:40;;;;;;;75.15;17.98;;;14.00;99.90;;;;;;4827020;29;20589;-84
2022/06/06 02:47:06;;;;;;;69.20;18.67;;;14.00;99.90;;;;;;4820807;29;20056;-83
2022/06/06 02:49:33;;;;;;;106.10;18.88;;;14.00;99.90;;;;;;4829091;29;20102;-83
2022/06/06 02:52:03;;;;;;;65.38;17.45;;;13.90;99.90;;;;;;4830956;29;20533;-84
2022/06/06 02:54:30;;;;;;;99.53;17.02;;;13.90;99.90;;;;;;4820193;29;20042;-82
2022/06/06 02:56:57;;;;;;;63.88;14.57;;;13.80;99.90;;;;;;4839882;29;20034;-83
2022/06/06 02:59:25;;;;;;;65.53;12.77;;;13.80;99.90;;;;;;4827567;29;20496;-84
2022/06/06 03:01:51;;;;;;;54.92;12.85;;;13.80;99.90;;;;;;4830821;29;20056;-83
2022/06/06 03:04:18;;;;;;;54.00;11.10;;;13.80;99.90;;;;;;4812899;29;20146;-82
2022/06/06 03:06:55;;;;;;;43.47;10.82;;;13.80;99.90;;;;;;4827476;29;20052;-82
2022/06/06 03:09:37;;;;;;;40.63;9.75;;;13.80;99.90;;;;;;4827597;29;20405;-85
2022/06/06 03:12:09;;;;;;;34.75;9.35;;;13.80;99.90;;;;;;4845412;29;20041;-84
2022/06/06 03:14:44;;;;;;;40.58;9.65;;;13.70;99.90;;;;;;4819581;29;20049;-83
2022/06/06 03:20:47;;;;;;;30.05;9.07;;;13.70;99.90;;;;;;4853470;29;20102;-83
2022/06/06 03:23:51;;;;;;;38.35;9.68;;;13.70;99.90;;;;;;4821608;29;20110;-83
2022/06/06 03:26:31;;;;;;;44.20;8.98;;;13.70;99.90;;;;;;4801090;29;20056;-84
2022/06/06 03:29:27;;;;;;;34.85;8.43;;;13.60;99.90;;;;;;4830473;29;20417;-84
2022/06/06 03:32:17;;;;;;;45.05;8.35;;;13.60;99.90;;;;;;4838983;29;20174;-83
2022/06/06 03:34:57;;;;;;;23.27;8.32;;;13.60;99.90;;;;;;4830434;29;20509;-83
2022/06/06 03:37:45;;;;;;;29.83;7.45;;;13.60;99.90;;;;;;4822076;29;20046;-83
2022/06/06 03:40:37;;;;;;;32.20;7.53;;;13.60;99.90;;;;;;4826016;29;20073;-84
2022/06/06 03:43:30;;;;;;;32.30;7.20;;;13.50;99.90;;;;;;4821297;29;20049;-84
2022/06/06 03:46:12;;;;;;;37.30;7.60;;;13.50;99.90;;;;;;4820019;29;20045;-84
2022/06/06 03:48:46;;;;;;;31.77;8.05;;;13.50;99.90;;;;;;4821359;29;20037;-84
2022/06/06 03:51:21;;;;;;;28.33;7.57;;;13.50;99.90;;;;;;4821595;29;20521;-84
2022/06/06 03:54:04;;;;;;;33.78;8.85;;;13.50;99.90;;;;;;4808589;29;20054;-83
2022/06/06 03:56:40;;;;;;;26.73;9.77;;;13.50;99.90;;;;;;4817172;29;20114;-84
2022/06/06 03:59:08;;;;;;;45.20;9.45;;;13.50;99.90;;;;;;4835683;29;20486;-84
2022/06/06 04:01:37;;;;;;;27.70;9.38;;;13.50;99.90;;;;;;4819220;29;20069;-83
2022/06/06 04:04:04;;;;;;;42.67;9.68;;;13.50;99.90;;;;;;4811431;29;20048;-83
2022/06/06 04:06:32;;;;;;;24.70;10.15;;;13.40;99.90;;;;;;4826872;29;20489;-83
2022/06/06 04:08:58;;;;;;;25.80;10.10;;;13.50;99.90;;;;;;4822139;29;20128;-83
2022/06/06 04:11:29;;;;;;;36.85;9.40;;;13.50;99.90;;;;;;4819194;29;20053;-82
2022/06/06 04:14:27;;;;;;;31.70;10.13;;;13.50;99.90;;;;;;4818184;29;20053;-83
2022/06/06 04:17:08;;;;;;;37.40;10.15;;;13.50;99.90;;;;;;4807940;29;20042;-82
2022/06/06 04:19:48;;;;;;;39.83;9.80;;;13.50;99.90;;;;;;4818211;29;20490;-84
2022/06/06 04:22:22;;;;;;;33.45;10.15;;;13.50;99.90;;;;;;4817888;29;20042;-84
2022/06/06 04:25:00;;;;;;;44.60;10.45;;;13.50;99.90;;;;;;4806105;29;20040;-83
2022/06/06 04:27:47;;;;;;;38.17;10.90;;;13.50;99.90;;;;;;4821991;29;20640;-83
2022/06/06 04:30:34;;;;;;;40.28;10.77;;;13.50;99.90;;;;;;4821732;29;20048;-83
2022/06/06 04:33:37;;;;;;;37.40;11.48;;;13.50;99.90;;;;;;4818546;29;20532;-84
2022/06/06 04:36:13;;;;;;;31.87;10.40;;;13.50;99.90;;;;;;4795777;29;20054;-84
2022/06/06 04:38:50;;;;;;;28.40;11.13;;;13.50;99.90;;;;;;4810181;29;20052;-83
2022/06/06 04:41:53;;;;;;;23.13;11.13;;;13.50;99.90;;;;;;4817659;29;20045;-83
2022/06/06 04:44:32;;;;;;;36.03;10.47;;;13.50;99.90;;;;;;4811596;29;20129;-82
2022/06/06 04:47:18;;;;;;;33.53;10.73;;;13.40;99.90;;;;;;4824645;29;20565;-83
2022/06/06 04:49:46;;;;;;;31.30;11.55;;;13.40;99.90;;;;;;4815588;29;20074;-83
2022/06/06 04:52:13;;;;;;;35.35;10.65;;;13.40;99.90;;;;;;4810782;29;20057;-82
2022/06/06 04:54:41;;;;;;;48.28;10.43;;;13.40;99.90;;;;;;4826082;29;20382;-82
2022/06/06 04:57:08;;;;;;;27.55;10.40;;;13.40;99.90;;;;;;4825797;29;20053;-83
2022/06/06 04:59:35;;;;;;;33.50;10.10;;;13.40;99.90;;;;;;4816470;29;20352;-83
2022/06/06 05:02:02;;;;;;;40.75;10.40;;;13.50;99.90;;;;;;4833102;29;20102;-82
2022/06/06 05:04:29;;;;;;;33.85;10.30;;;13.50;99.90;;;;;;4821962;29;20412;-83
2022/06/06 05:07:09;;;;;;;32.75;9.98;;;13.40;99.90;;;;;;4819198;29;20038;-82
2022/06/06 05:09:44;;;;;;;30.92;9.85;;;13.50;99.90;;;;;;4816423;29;20042;-82
2022/06/06 05:12:47;;;;;;;23.38;10.10;;;13.40;99.90;;;;;;4834482;29;20538;-82
2022/06/06 05:15:31;;;;;;;34.45;10.13;;;13.40;99.90;;;;;;4823876;29;20126;-83
2022/06/06 05:18:12;;;;;;;29.42;9.85;;;13.50;99.90;;;;;;4817740;29;20104;-83
2022/06/06 05:21:04;;;;;;;25.40;9.45;;;13.50;99.90;;;;;;4825415;29;20046;-83
2022/06/06 05:23:56;;;;;;;23.38;9.52;;;13.60;99.90;;;;;;4836263;29;20050;-84
2022/06/06 05:26:28;;;;;;;25.33;10.07;;;13.60;99.90;;;;;;4828713;29;20056;-83
2022/06/06 05:29:15;;;;;;;26.98;11.43;;;13.60;99.90;;;;;;4828233;29;20052;-84
2022/06/06 05:31:40;;;;;;;23.42;10.77;;;13.50;99.90;;;;;;4820991;29;20146;-82
2022/06/06 05:34:14;;;;;;;22.77;10.10;;;13.50;99.90;;;;;;4829970;29;20046;-83
2022/06/06 05:37:14;;;;;;;23.60;10.80;;;13.40;99.90;;;;;;4824842;29;20084;-83
2022/06/06 05:40:04;;;;;;;35.90;10.07;;;13.50;99.90;;;;;;4806620;29;20502;-83
2022/06/06 05:42:40;;;;;;;27.33;9.88;;;13.50;99.90;;;;;;4840403;29;20042;-83
2022/06/06 05:45:14;;;;;;;31.48;10.10;;;13.50;99.90;;;;;;4834427;29;20123;-83
2022/06/06 05:47:51;;;;;;;25.50;9.95;;;13.60;99.90;;;;;;4820270;29;20049;-82
2022/06/06 05:50:38;;;;;;;24.80;10.75;;;13.60;99.90;;;;;;4835897;29;20089;-83
2022/06/06 05:53:10;;;;;;;34.75;10.80;;;13.70;99.90;;;;;;4824811;29;20057;-82
2022/06/06 05:55:57;;;;;;;29.23;11.57;;;13.70;99.90;;;;;;4817759;29;20042;-82
2022/06/06 05:58:44;;;;;;;26.58;9.75;;;13.80;99.90;;;;;;4819832;29;20087;-82
2022/06/06 06:01:48;;;;;;;29.25;9.98;;;14.00;99.90;;;;;;4813265;29;20403;-82
2022/06/06 06:04:22;;;;;;;;;;;14.10;99.90;;;;;;4779854;29;20130;-82
2022/06/06 06:06:54;;;;;;;22.55;10.32;;;14.10;99.90;;;;;;4814165;29;19963;-82
2022/06/06 06:09:55;;;;;;;24.33;10.48;;;14.20;99.90;;;;;;4814112;29;20545;-82
2022/06/06 06:12:33;;;;;;;26.17;9.50;;;14.30;99.90;;;;;;4812640;29;20098;-82
2022/06/06 06:15:19;;;;;;;22.27;10.73;;;14.30;99.90;;;;;;4831548;29;20397;-82
2022/06/06 06:17:52;;;;;;;24.30;9.85;;;14.40;99.90;;;;;;4835137;29;20041;-83
2022/06/06 06:20:21;;;;;;;18.33;9.85;;;14.40;99.90;;;;;;4839670;29;20500;-82
2022/06/06 06:23:00;;;;;;;19.98;9.70;;;14.50;99.90;;;;;;4823244;29;20112;-82
2022/06/06 06:25:26;;;;;;;19.60;9.40;;;14.50;99.90;;;;;;4817857;29;20056;-82
2022/06/06 06:28:02;;;;;;;20.50;10.75;;;14.60;99.90;;;;;;4823594;29;20046;-81
2022/06/06 06:30:39;;;;;;;21.00;10.32;;;14.60;99.90;;;;;;4842028;29;20109;-82
2022/06/06 06:33:29;;;;;;;21.33;10.15;;;14.70;99.90;;;;;;4816493;29;20046;-82
2022/06/06 06:36:16;;;;;;;22.23;10.48;;;14.80;99.90;;;;;;4825255;29;20042;-82
2022/06/06 06:39:19;;;;;;;18.42;9.50;;;15.10;99.90;;;;;;4812907;29;20038;-82
2022/06/06 06:42:10;;;;;;;19.42;9.38;;;15.20;99.90;;;;;;4805775;29;20412;-83
2022/06/06 06:44:46;;;;;;;17.30;8.57;;;15.20;99.90;;;;;;4810762;29;20045;-83
2022/06/06 06:47:23;;;;;;;18.98;9.52;;;15.10;99.90;;;;;;4820720;29;20041;-83
2022/06/06 06:50:02;;;;;;;15.15;8.75;;;15.10;99.90;;;;;;4820372;29;20398;-82
2022/06/06 06:52:43;;;;;;;18.13;9.68;;;15.00;99.90;;;;;;4836210;29;20046;-83
2022/06/06 06:55:35;;;;;;;17.80;9.35;;;15.00;99.90;;;;;;4830873;29;20042;-82
2022/06/06 06:58:46;;;;;;;18.10;9.82;;;15.10;99.90;;;;;;4821924;29;20049;-83
2022/06/06 07:01:19;;;;;;;20.73;10.25;;;15.10;99.90;;;;;;4804675;29;20053;-83
2022/06/06 07:10:24;;;;;;;17.45;10.18;;;15.10;99.90;;;;;;4831763;29;20057;-83
2022/06/06 07:13:04;;;;;;;19.65;10.60;;;15.00;99.90;;;;;;4812803;29;20067;-82
2022/06/06 07:15:44;;;;;;;19.00;10.27;;;14.90;99.90;;;;;;4816953;29;20120;-82
2022/06/06 07:18:13;;;;;;;19.05;10.57;;;14.80;99.90;;;;;;4818573;29;20105;-81
2022/06/06 07:20:42;;;;;;;20.05;10.82;;;14.70;99.90;;;;;;4841519;29;20056;-82
2022/06/06 07:23:11;;;;;;;19.83;11.15;;;14.60;99.90;;;;;;4812219;29;20072;-83
2022/06/06 07:25:39;;;;;;;21.52;11.05;;;14.60;99.90;;;;;;4812186;29;20128;-82
2022/06/06 07:28:08;;;;;;;18.75;11.98;;;14.50;99.90;;;;;;4812023;29;20050;-82
2022/06/06 07:30:39;;;;;;;20.58;12.05;;;14.60;99.90;;;;;;4811283;29;20425;-81
2022/06/06 07:33:22;;;;;;;15.35;10.13;;;14.80;99.90;;;;;;4832971;29;20498;-81
2022/06/06 07:36:05;;;;;;;13.52;9.07;;;14.90;99.90;;;;;;4833920;29;20129;-81
2022/06/06 07:38:53;;;;;;;14.43;8.27;;;14.80;99.90;;;;;;4830002;29;20045;-82
2022/06/06 07:41:19;;;;;;;13.88;7.75;;;14.70;99.90;;;;;;4822850;29;20048;-81
2022/06/06 07:43:45;;;;;;;10.93;7.90;;;14.80;99.90;;;;;;4818766;29;20049;-80
2022/06/06 07:46:47;;;;;;;14.48;8.73;;;14.90;99.90;;;;;;4840946;29;20076;-80
2022/06/06 07:49:21;;;;;;;12.57;8.25;;;15.10;99.90;;;;;;4797621;29;20058;-83
2022/06/06 07:52:14;;;;;;;9.68;6.57;;;15.50;99.90;;;;;;4838682;29;20045;-83
2022/06/06 07:55:05;;;;;;;11.00;6.70;;;16.10;99.90;;;;;;4836600;29;20049;-82
2022/06/06 07:57:49;;;;;;;10.88;6.88;;;16.90;99.90;;;;;;4844029;29;20183;-80
2022/06/06 08:00:25;;;;;;;8.18;6.32;;;17.30;99.90;;;;;;4807313;29;20082;-80
2022/06/06 08:02:59;;;;;;;8.25;5.95;;;17.20;99.90;;;;;;4824694;29;20050;-80
2022/06/06 08:05:52;;;;;;;8.30;6.47;;;16.90;99.90;;;;;;4834425;29;20249;-79
2022/06/06 08:08:55;;;;;;;8.85;7.22;;;16.70;99.90;;;;;;4832898;29;20049;-80
2022/06/06 08:11:56;;;;;;;9.25;6.40;;;16.80;99.90;;;;;;4841664;29;20050;-80
2022/06/06 08:14:42;;;;;;;8.40;4.80;;;17.60;99.90;;;;;;4842086;29;20046;-80
2022/06/06 08:17:24;;;;;;;6.57;4.07;;;18.00;99.90;;;;;;4829695;29;20130;-78
2022/06/06 08:20:18;;;;;;;5.85;3.85;;;18.00;99.90;;;;;;4818633;29;20520;-78
2022/06/06 08:22:44;;;;;;;5.88;3.10;;;18.20;99.90;;;;;;4832891;29;20054;-78
2022/06/06 08:25:13;;;;;;;3.67;2.63;;;18.60;99.90;;;;;;4837576;29;20045;-77
2022/06/06 08:27:46;;;;;;;4.43;2.67;;;19.10;99.90;;;;;;4828104;29;20418;-78
2022/06/06 08:30:12;;;;;;;5.00;2.50;;;19.20;99.90;;;;;;4818225;29;20545;-79
2022/06/06 08:32:38;;;;;;;4.97;2.55;;;18.80;99.90;;;;;;4823941;29;21384;-79
2022/06/06 08:35:04;;;;;;;3.40;2.30;;;18.50;99.90;;;;;;4818311;29;20121;-79
2022/06/06 08:37:42;;;;;;;3.40;2.45;;;18.40;99.90;;;;;;4823828;29;20038;-80
2022/06/06 08:40:32;;;;;;;3.10;2.30;;;18.60;99.90;;;;;;4826018;29;20053;-79
2022/06/06 08:43:15;;;;;;;3.85;2.40;;;19.00;99.90;;;;;;4813665;29;20341;-79
2022/06/06 08:46:04;;;;;;;4.10;2.10;;;19.20;99.90;;;;;;4839914;29;20566;-79
2022/06/06 08:48:44;;;;;;;4.65;2.40;;;18.90;99.90;;;;;;4810125;29;20078;-79
2022/06/06 08:51:28;;;;;;;3.42;2.40;;;18.60;99.90;;;;;;4825120;29;20045;-79
2022/06/06 08:54:15;;;;;;;4.65;2.28;;;18.60;99.90;;;;;;4825575;29;20420;-80
2022/06/06 08:56:55;;;;;;;2.80;2.10;;;18.70;99.90;;;;;;4809813;29;20053;-80
2022/06/06 08:59:39;;;;;;;2.53;2.00;;;18.80;99.90;;;;;;4845127;29;20049;-80
2022/06/06 09:02:07;;;;;;;2.75;2.10;;;18.60;99.90;;;;;;4838462;29;20045;-79
2022/06/06 09:05:00;;;;;;;4.32;2.17;;;18.30;99.90;;;;;;4806335;29;20502;-80
2022/06/06 09:07:53;;;;;;;4.30;1.95;;;18.00;99.90;;;;;;4807832;29;20102;-79
2022/06/06 09:10:44;;;;;;;3.78;2.70;;;17.60;99.90;;;;;;4817554;29;20049;-80
2022/06/06 09:13:12;;;;;;;5.20;3.40;;;17.20;99.90;;;;;;4803283;29;20046;-79
2022/06/06 09:15:56;;;;;;;4.68;3.00;;;17.10;99.90;;;;;;4826837;29;20095;-79
2022/06/06 09:18:43;;;;;;;6.35;3.42;;;17.60;99.90;;;;;;4817479;29;20431;-80
2022/06/06 09:21:23;;;;;;;3.90;3.50;;;18.30;99.90;;;;;;4839169;29;20112;-80
2022/06/06 09:24:12;;;;;;;4.95;3.17;;;18.90;99.90;;;;;;4819657;29;20049;-80
2022/06/06 09:26:56;;;;;;;3.63;3.10;;;19.50;99.90;;;;;;4830606;29;20077;-80
2022/06/06 09:29:52;;;;;;;5.35;3.10;;;19.40;99.90;;;;;;4828354;29;20058;-80
2022/06/06 09:32:29;;;;;;;5.07;3.28;;;19.40;99.90;;;;;;4817090;29;20050;-81
2022/06/06 09:35:12;;;;;;;3.50;1.80;;;19.90;99.90;;;;;;4817070;29;20042;-80
2022/06/06 09:38:02;;;;;;;3.15;1.80;;;20.00;99.90;;;;;;4897208;23;20061;-79
2022/06/06 09:41:05;;;;;;;2.42;1.90;;;20.00;99.90;;;;;;4869855;29;20124;-80
2022/06/06 09:44:10;;;;;;;3.00;1.60;;;20.30;99.90;;;;;;4874484;29;20494;-80
2022/06/06 09:47:22;;;;;;;1.85;1.52;;;20.20;99.90;;;;;;4878002;29;20041;-81
2022/06/06 09:50:26;;;;;;;3.13;2.00;;;19.50;99.90;;;;;;4878267;29;20052;-80
2022/06/06 09:53:36;;;;;;;3.35;2.40;;;18.70;99.90;;;;;;4851772;29;20091;-79
2022/06/06 09:59:51;;;;;;;4.15;3.40;;;17.70;99.90;;;;;;4858869;29;20049;-79
2022/06/06 10:07:12;;;;;;;4.55;2.92;;;19.60;99.90;;;;;;4856689;29;20105;-80
2022/06/06 10:10:42;;;;;;;;;;;;;;;;;;;;;
2022/06/06 10:13:56;;;;;;;2.13;1.52;;;20.80;99.90;;;;;;4834408;29;20053;-80
2022/06/06 10:17:26;;;;;;;4.55;2.30;;;19.80;99.90;;;;;;4853659;29;20041;-80
2022/06/06 10:20:51;;;;;;;3.78;2.47;;;19.20;99.90;;;;;;4881062;29;20084;-80
2022/06/06 10:24:00;;;;;;;3.00;2.47;;;18.80;99.90;;;;;;4857239;29;20030;-80
2022/06/06 10:27:42;;;;;;;3.67;2.90;;;18.40;99.90;;;;;;4869118;29;20049;-79
2022/06/06 10:31:11;;;;;;;;;;;;;;;;;;;;;
2022/06/06 10:34:22;;;;;;;4.07;3.47;;;17.50;99.90;;;;;;4873159;29;20049;-78
2022/06/06 10:37:10;;;;;;;4.70;3.42;;;17.10;99.90;;;;;;4864144;29;20038;-79
2022/06/06 10:39:51;;;;;;;4.15;3.55;;;16.80;99.90;;;;;;4877560;29;20037;-78
2022/06/06 10:43:12;;;;;;;5.22;3.80;;;16.50;99.90;;;;;;4863908;29;20041;-78
2022/06/06 10:45:57;;;;;;;;;;;16.30;99.90;;;;;;4878832;29;20092;-78
2022/06/06 10:49:05;;;;;;;4.50;3.80;;;16.10;99.90;;;;;;4864970;29;19924;-78
2022/06/06 10:52:12;;;;;;;4.63;4.22;;;15.90;99.90;;;;;;4865380;29;20041;-78
2022/06/06 10:55:26;;;;;;;4.47;3.47;;;15.70;99.90;;;;;;4852680;29;20052;-78
2022/06/06 10:58:30;;;;;;;3.50;2.75;;;15.60;99.90;;;;;;4877992;29;20075;-78
2022/06/06 11:01:08;;;;;;;3.75;2.70;;;15.50;99.90;;;;;;4864820;29;20419;-79
2022/06/06 11:03:57;;;;;;;3.03;2.83;;;15.30;99.90;;;;;;4870360;29;20044;-78
2022/06/06 11:06:48;;;;;;;3.15;2.28;;;15.10;99.90;;;;;;4867395;29;20056;-78
2022/06/06 11:12:51;;;;;;;3.13;1.70;;;14.90;99.90;;;;;;4879110;29;19920;-78
2022/06/06 11:15:16;;;;;;;1.90;1.73;;;15.10;99.90;;;;;;4857441;29;20084;-78
2022/06/06 11:18:27;;;;;;;3.42;3.13;;;15.60;99.90;;;;;;4851062;29;20090;-77
2022/06/06 11:21:27;;;;;;;3.53;3.22;;;16.40;99.90;;;;;;4888346;29;20063;-77
2022/06/06 11:24:19;;;;;;;4.63;3.05;;;17.50;99.90;;;;;;4859422;29;20080;-78
2022/06/06 11:27:25;;;;;;;3.42;2.88;;;18.40;99.90;;;;;;4860429;29;20044;-78
2022/06/06 11:29:57;;;;;;;3.72;2.60;;;18.80;99.90;;;;;;4873878;29;20049;-77
2022/06/06 11:32:48;;;;;;;3.45;2.55;;;19.00;99.90;;;;;;4873980;29;20033;-79
2022/06/06 11:35:36;;;;;;;3.30;2.80;;;19.00;99.90;;;;;;4872824;29;20561;-78
2022/06/06 11:38:30;;;;;;;2.22;1.92;;;19.00;99.90;;;;;;4861390;29;20061;-78
2022/06/06 11:41:04;;;;;;;;;;;19.50;99.90;;;;;;4843411;29;20128;-79
2022/06/06 11:44:19;;;;;;;2.45;1.10;;;20.00;99.90;;;;;;4881156;29;19995;-79
2022/06/06 11:47:35;;;;;;;2.58;0.93;;;20.70;99.90;;;;;;4851346;29;20518;-78
2022/06/06 11:51:13;;;;;;;0.95;0.70;;;21.40;99.90;;;;;;4876388;29;20065;-79
2022/06/06 11:54:37;;;;;;;0.60;0.60;;;21.70;99.90;;;;;;4877218;29;20080;-79
2022/06/06 11:57:35;;;;;;;1.77;0.90;;;21.90;99.90;;;;;;4873740;29;20068;-79
2022/06/06 12:00:25;;;;;;;1.80;0.50;;;21.40;99.90;;;;;;4873074;29;20124;-78
2022/06/06 12:03:22;;;;;;;0.45;0.45;;;20.90;99.90;;;;;;4874725;29;20044;-78
2022/06/06 12:06:23;;;;;;;0.85;0.50;;;20.50;99.90;;;;;;4878357;29;20119;-79
2022/06/06 12:09:48;;;;;;;1.42;0.70;;;20.30;99.90;;;;;;4876666;29;20048;-79
2022/06/06 12:12:53;;;;;;;0.77;0.45;;;20.20;99.90;;;;;;4780662;29;20129;-79
2022/06/06 12:15:46;;;;;;;1.13;0.57;;;20.30;99.90;;;;;;4811942;29;20050;-79
2022/06/06 12:18:21;;;;;;;1.45;0.75;;;20.10;99.90;;;;;;4863112;29;20136;-79
2022/06/06 12:21:04;;;;;;;1.40;0.82;;;19.70;99.90;;;;;;4847222;29;20041;-79
2022/06/06 12:23:55;;;;;;;1.15;1.05;;;19.70;99.90;;;;;;4873905;29;20542;-78
2022/06/06 12:26:39;;;;;;;1.42;1.30;;;19.60;99.90;;;;;;4865910;29;20539;-79
2022/06/06 12:29:39;;;;;;;1.70;1.40;;;19.60;99.90;;;;;;4880367;29;20068;-79
2022/06/06 12:32:34;;;;;;;2.10;1.40;;;19.50;99.90;;;;;;4864763;29;20520;-79
2022/06/06 12:35:30;;;;;;;2.78;1.80;;;19.40;99.90;;;;;;4880484;29;20052;-77
2022/06/06 12:38:26;;;;;;;3.45;1.30;;;19.50;99.90;;;;;;4864507;29;20404;-78
2022/06/06 12:41:11;;;;;;;1.75;1.33;;;19.50;99.90;;;;;;4865550;29;20049;-78
2022/06/06 12:43:59;;;;;;;2.33;1.08;;;19.50;99.90;;;;;;4880815;29;20049;-78
2022/06/06 12:46:59;;;;;;;2.58;1.38;;;19.40;99.90;;;;;;4865464;29;20481;-78
2022/06/06 12:49:40;;;;;;;1.73;1.00;;;19.30;99.90;;;;;;4864607;29;20453;-78
2022/06/06 12:52:33;;;;;;;2.15;1.05;;;19.20;99.90;;;;;;4835365;29;20176;-78
2022/06/06 12:55:44;;;;;;;1.35;0.98;;;19.10;99.90;;;;;;4881113;29;20057;-78
2022/06/06 12:58:13;;;;;;;1.55;0.95;;;18.90;99.90;;;;;;4880387;29;20052;-79
2022/06/06 13:04:04;;;;;;;0.70;0.70;;;18.70;99.90;;;;;;4881170;29;20067;-78
2022/06/06 13:06:48;;;;;;;1.75;0.90;;;18.50;99.90;;;;;;4850659;29;20048;-79
2022/06/06 13:09:42;;;;;;;1.33;0.93;;;18.40;99.90;;;;;;4865205;29;20154;-80
2022/06/06 13:12:52;;;;;;;2.13;1.63;;;18.30;99.90;;;;;;4880958;29;20451;-78
2022/06/06 13:15:33;;;;;;;2.35;1.63;;;18.30;99.90;;;;;;4865584;29;20500;-78
2022/06/06 13:18:10;;;;;;;4.30;1.95;;;18.00;99.90;;;;;;4863943;29;20143;-77
2022/06/06 13:20:57;;;;;;;2.20;2.00;;;18.00;99.90;;;;;;4863948;29;20043;-78
2022/06/06 13:23:31;;;;;;;4.35;2.70;;;17.70;99.90;;;;;;4879810;29;20091;-78
2022/06/06 13:26:35;;;;;;;2.13;1.83;;;17.40;99.90;;;;;;4863796;29;20097;-78
2022/06/06 13:29:01;;;;;;;;;;;16.90;99.90;;;;;;4864610;29;20439;-78
2022/06/06 13:31:45;;;;;;;3.53;2.30;;;16.50;99.90;;;;;;4878912;29;19927;-78
2022/06/06 13:34:20;;;;;;;2.35;2.05;;;16.20;99.90;;;;;;4863830;29;20071;-77
2022/06/06 13:37:21;;;;;;;2.00;1.80;;;16.00;99.90;;;;;;4863890;29;20076;-78
2022/06/06 13:40:05;;;;;;;3.22;2.28;;;15.80;99.90;;;;;;4849649;29;20052;-78
2022/06/06 13:43:20;;;;;;;2.78;2.50;;;15.50;99.90;;;;;;4863695;29;20535;-78
2022/06/06 13:45:54;;;;;;;4.05;2.47;;;15.40;99.90;;;;;;4830515;29;20075;-77
2022/06/06 13:48:49;;;;;;;3.00;2.67;;;15.30;99.90;;;;;;4847756;29;20045;-77
2022/06/06 13:51:36;;;;;;;2.90;2.60;;;15.20;99.90;;;;;;4879908;29;20087;-77
2022/06/06 13:54:10;;;;;;;3.67;2.47;;;15.10;99.90;;;;;;4879281;29;20112;-78
2022/06/06 13:56:48;;;;;;;3.45;2.65;;;15.00;99.90;;;;;;4849656;29;20067;-78
2022/06/06 13:59:46;;;;;;;3.65;2.63;;;14.90;99.90;;;;;;4864428;29;20500;-77
2022/06/06 14:02:35;;;;;;;2.92;2.65;;;14.80;99.90;;;;;;4864256;29;20052;-78
2022/06/06 14:06:02;;;;;;;3.85;3.28;;;14.80;99.90;;;;;;4849882;29;20051;-78
2022/06/06 14:08:54;;;;;;;4.30;3.13;;;14.80;99.90;;;;;;4843750;29;20069;-77
2022/06/06 14:11:50;;;;;;;5.03;3.72;;;14.90;99.90;;;;;;4857972;29;20133;-78
2022/06/06 14:14:33;;;;;;;5.10;3.60;;;14.90;99.90;;;;;;4871218;29;20104;-79
2022/06/06 14:17:05;;;;;;;4.68;4.18;;;14.90;99.90;;;;;;4858922;29;20044;-79
2022/06/06 14:19:48;;;;;;;4.47;3.58;;;14.90;99.90;;;;;;4889410;29;20041;-78
2022/06/06 14:22:39;;;;;;;6.93;4.03;;;14.90;99.90;;;;;;4868660;29;20093;-78
2022/06/06 14:25:07;;;;;;;5.28;4.60;;;14.80;99.90;;;;;;4860264;29;20108;-78
2022/06/06 14:27:38;;;;;;;4.63;3.83;;;14.80;99.90;;;;;;4863359;29;20449;-78